KLEX

Blue Grass Airport

Lexington, Kentucky, USA
METAR KLEX 200054Z 20008KT 10SM CLR 02/M08 A3011 RMK AO2 SLP206 T00171078
Observed Flight Rules
Jan-20 @ 00:54 UTC (27 minutes ago) Visual Flight Rules
Wind Visibility Clouds
200° at 8 knots 10 miles
  • Clear skies
Temperatures Readings
Current 2°C / 36°F
Dewpoint -8°C / 18°F
Humidity 48%
Altimeter 30.11" Hg
Pressure 1020.6 hPa
Elevation 300
METAR KLEX 200054Z 20008KT 10SM CLR 02/M08 A3011 RMK AO2 SLP206 T00171078
Observed Flight Rules
Jan-20 @ 00:54 UTC
(27 minutes ago)
VFR
Wind Visibility
200° at 8 knots 10 miles
Clouds
  • Clear skies
Temperature Dewpoint
2°C / 36°F -8°C / 18°F
Humidity Altimeter Pressure
48% 30.11" Hg 1020.6 hPa